Time;durP1;ratioP1;P1;durP2;ratioP2;P2;SDS_P1;SDS_P2;PMS_P1;PMS_P2;Temp;Humidity;BMP_temperature;BMP_pressure;BME280_temperature;BME280_humidity;BME280_pressure;Samples;Min_cycle;Max_cycle;Signal;HPM_P1;HPM_P2
2023/05/28 00:01:46;;;;;;;11.33;4.80;;;;;;;12.64;100.00;100385.91;5014406;28;20673;-79
2023/05/28 00:04:11;;;;;;;12.60;5.23;;;;;;;12.49;100.00;100378.16;5012953;28;20309;-74
2023/05/28 00:06:37;;;;;;;10.30;5.13;;;;;;;12.51;100.00;100378.06;5006881;28;20285;-75
2023/05/28 00:09:02;;;;;;;12.37;5.47;;;;;;;12.38;100.00;100380.53;5007046;28;20196;-75
2023/05/28 00:11:27;;;;;;;11.27;6.00;;;;;;;12.42;100.00;100371.69;4996773;28;20250;-76
2023/05/28 00:13:53;;;;;;;9.90;5.37;;;;;;;12.39;100.00;100377.00;5009361;28;20187;-76
2023/05/28 00:16:18;;;;;;;12.37;6.20;;;;;;;12.31;100.00;100374.06;5002429;28;20207;-75
2023/05/28 00:18:43;;;;;;;9.90;5.43;;;;;;;12.27;100.00;100370.81;5002720;28;20211;-76
2023/05/28 00:21:08;;;;;;;13.57;6.63;;;;;;;12.26;100.00;100375.13;5006758;28;20605;-71
2023/05/28 00:23:34;;;;;;;10.27;5.37;;;;;;;12.20;100.00;100372.06;5015955;28;20188;-72
2023/05/28 00:25:59;;;;;;;8.43;4.73;;;;;;;12.22;100.00;100371.06;5011324;28;20193;-75
2023/05/28 00:28:24;;;;;;;10.17;5.00;;;;;;;12.27;100.00;100368.25;5009042;28;20179;-74
2023/05/28 00:30:49;;;;;;;12.47;5.67;;;;;;;12.23;100.00;100365.00;5007799;28;20237;-73
2023/05/28 00:33:15;;;;;;;7.13;5.10;;;;;;;12.21;100.00;100366.81;5010661;28;20218;-74
2023/05/28 00:35:40;;;;;;;10.67;5.40;;;;;;;12.24;100.00;100358.94;5011989;28;20218;-74
2023/05/28 00:38:05;;;;;;;8.67;4.60;;;;;;;12.21;100.00;100360.84;5011367;28;20199;-74
2023/05/28 00:40:30;;;;;;;8.87;4.77;;;;;;;12.25;100.00;100358.00;5005157;28;20237;-73
2023/05/28 00:42:56;;;;;;;8.93;5.07;;;;;;;12.24;100.00;100358.94;5011172;28;20622;-73
2023/05/28 00:45:21;;;;;;;11.70;5.20;;;;;;;12.20;100.00;100357.41;5012074;28;20216;-74
2023/05/28 00:47:47;;;;;;;14.97;6.00;;;;;;;12.13;100.00;100355.28;5011433;28;20671;-74
2023/05/28 00:50:13;;;;;;;8.57;4.97;;;;;;;12.04;100.00;100354.88;5001168;28;20190;-73
2023/05/28 00:52:38;;;;;;;8.60;5.23;;;;;;;11.97;100.00;100355.31;5026061;28;20309;-73
2023/05/28 00:55:14;;;;;;;10.37;5.33;;;;;;;11.84;100.00;100358.56;5010333;28;20273;-74
2023/05/28 00:57:40;;;;;;;8.07;5.50;;;;;;;11.83;100.00;100363.81;5010105;28;20675;-73
2023/05/28 01:00:06;;;;;;;8.97;4.80;;;;;;;11.71;100.00;100362.72;4999142;28;20261;-73
2023/05/28 01:02:31;;;;;;;7.27;5.40;;;;;;;11.74;100.00;100358.22;5026263;28;20199;-72
2023/05/28 01:04:56;;;;;;;11.80;5.40;;;;;;;11.65;100.00;100360.47;5012376;28;20546;-74
2023/05/28 01:07:22;;;;;;;8.10;5.70;;;;;;;11.68;100.00;100368.06;5011820;28;20196;-73
2023/05/28 01:09:47;;;;;;;9.87;4.90;;;;;;;11.61;100.00;100365.00;5010536;28;20202;-72
2023/05/28 01:12:13;;;;;;;11.67;5.50;;;;;;;11.52;100.00;100368.88;5015233;28;20237;-72
2023/05/28 01:14:39;;;;;;;9.97;5.23;;;;;;;11.53;100.00;100365.41;5016781;28;20245;-73
2023/05/28 01:17:05;;;;;;;6.47;4.70;;;;;;;11.53;100.00;100364.56;5015073;28;20190;-73
2023/05/28 01:19:31;;;;;;;10.30;5.37;;;;;;;11.56;100.00;100357.50;5015901;28;20194;-74
2023/05/28 01:22:03;;;;;;;10.40;5.60;;;;;;;11.53;100.00;100360.25;5021634;28;20233;-74
2023/05/28 01:24:29;;;;;;;11.70;5.17;;;;;;;11.55;100.00;100355.84;5016644;28;20182;-73
2023/05/28 01:26:56;;;;;;;11.93;6.23;;;;;;;11.45;100.00;100352.94;5015801;28;20698;-73
2023/05/28 01:29:22;;;;;;;10.93;5.40;;;;;;;11.34;100.00;100352.69;5007972;28;20282;-73
2023/05/28 01:31:47;;;;;;;7.83;5.70;;;;;;;11.36;100.00;100353.44;5017825;28;20903;-73
2023/05/28 01:34:13;;;;;;;9.57;5.43;;;;;;;11.35;100.00;100345.78;5016875;28;20202;-73
2023/05/28 01:36:46;;;;;;;11.80;5.97;;;;;;;11.30;100.00;100341.72;5014859;28;20186;-73
2023/05/28 01:39:15;;;;;;;10.33;4.90;;;;;;;11.26;100.00;100336.81;5016344;28;20261;-73
2023/05/28 01:41:41;;;;;;;11.37;5.63;;;;;;;11.25;100.00;100341.13;5009951;28;20217;-73
2023/05/28 01:44:07;;;;;;;7.57;5.47;;;;;;;11.24;100.00;100338.66;5020916;28;20193;-73
2023/05/28 01:46:33;;;;;;;10.93;5.53;;;;;;;11.17;100.00;100338.13;5015874;28;20574;-73
2023/05/28 01:48:59;;;;;;;7.60;5.00;;;;;;;11.21;100.00;100342.22;5016147;28;20204;-74
2023/05/28 01:51:25;;;;;;;7.00;5.00;;;;;;;11.11;100.00;100338.47;5009855;28;20217;-73
2023/05/28 01:53:51;;;;;;;7.87;5.33;;;;;;;11.17;100.00;100339.88;5014907;28;20193;-73
2023/05/28 01:56:16;;;;;;;8.97;5.17;;;;;;;11.18;100.00;100342.38;5031134;28;20231;-73
2023/05/28 01:58:42;;;;;;;8.73;5.37;;;;;;;11.12;100.00;100342.69;5015690;28;20194;-73
2023/05/28 02:01:27;;;;;;;8.27;5.33;;;;;;;10.97;100.00;100340.00;5014701;28;20233;-73
2023/05/28 02:03:52;;;;;;;9.80;5.07;;;;;;;11.00;100.00;100338.19;5021029;28;20190;-73
2023/05/28 02:06:18;;;;;;;9.07;5.37;;;;;;;11.01;100.00;100337.28;5017686;28;20559;-73
2023/05/28 02:08:43;;;;;;;8.30;5.20;;;;;;;10.84;100.00;100339.00;5016513;28;20257;-74
2023/05/28 02:11:08;;;;;;;9.33;5.27;;;;;;;10.89;100.00;100336.19;5015323;28;20234;-73
2023/05/28 02:13:33;;;;;;;9.20;5.57;;;;;;;11.00;100.00;100330.47;5016833;28;20277;-73
2023/05/28 02:15:59;;;;;;;7.33;4.87;;;;;;;10.88;100.00;100324.22;5017232;28;20226;-73
2023/05/28 02:18:24;;;;;;;8.27;4.90;;;;;;;10.86;100.00;100324.31;5015418;28;20210;-74
2023/05/28 02:20:49;;;;;;;10.23;5.63;;;;;;;10.64;100.00;100327.16;5013110;28;20221;-73
2023/05/28 02:23:15;;;;;;;12.30;5.30;;;;;;;10.70;100.00;100328.59;5027224;28;20190;-73
2023/05/28 02:25:40;;;;;;;11.33;5.23;;;;;;;10.58;100.00;100315.44;5016084;28;20187;-73
2023/05/28 02:28:05;;;;;;;8.93;5.87;;;;;;;10.61;100.00;100312.72;5013777;28;20182;-72
2023/05/28 02:30:30;;;;;;;8.43;5.30;;;;;;;10.69;100.00;100317.44;5007612;28;20575;-73
2023/05/28 02:32:56;;;;;;;9.27;5.30;;;;;;;10.60;100.00;100317.94;5026158;28;20182;-73
2023/05/28 02:35:22;;;;;;;7.90;5.40;;;;;;;10.45;100.00;100319.53;5014272;28;20229;-73
2023/05/28 02:37:48;;;;;;;9.10;5.40;;;;;;;10.53;100.00;100314.00;5013541;28;20183;-74
2023/05/28 02:40:13;;;;;;;11.10;5.17;;;;;;;10.54;100.00;100318.25;5003076;28;20191;-73
2023/05/28 02:42:38;;;;;;;9.00;4.80;;;;;;;10.54;100.00;100318.25;5013028;28;20194;-73
2023/05/28 02:45:05;;;;;;;9.13;5.47;;;;;;;10.55;100.00;100309.63;5014228;28;20178;-72
2023/05/28 02:47:30;;;;;;;7.73;5.90;;;;;;;10.59;100.00;100311.97;5013214;28;20266;-73
2023/05/28 02:49:55;;;;;;;12.33;5.57;;;;;;;10.56;100.00;100312.13;5012965;28;20721;-72
2023/05/28 02:52:20;;;;;;;11.33;5.83;;;;;;;10.53;100.00;100314.00;5018491;28;20229;-72
2023/05/28 02:54:46;;;;;;;9.30;5.20;;;;;;;10.42;100.00;100317.97;5014301;28;20252;-72
2023/05/28 02:57:11;;;;;;;9.23;4.83;;;;;;;10.37;100.00;100314.81;5013976;28;20187;-72
2023/05/28 02:59:37;;;;;;;9.87;5.60;;;;;;;10.33;100.00;100319.22;5013116;28;20175;-73
2023/05/28 03:02:02;;;;;;;7.93;5.63;;;;;;;10.34;100.00;100320.91;4994136;28;20222;-73
2023/05/28 03:04:28;;;;;;;6.70;5.30;;;;;;;10.33;100.00;100318.38;5010687;28;20565;-73
2023/05/28 03:06:53;;;;;;;7.97;5.33;;;;;;;10.30;100.00;100318.53;5012493;28;20277;-73
2023/05/28 03:09:18;;;;;;;7.40;4.70;;;;;;;10.30;100.00;100318.53;5014020;28;20661;-72
2023/05/28 03:11:44;;;;;;;7.77;4.73;;;;;;;10.15;100.00;100326.09;5006661;28;20234;-73
2023/05/28 03:14:09;;;;;;;8.70;5.30;;;;;;;10.12;100.00;100328.84;5012217;28;20187;-73
2023/05/28 03:16:36;;;;;;;7.27;4.77;;;;;;;10.14;100.00;100329.56;5015351;28;20221;-74
2023/05/28 03:19:02;;;;;;;9.17;4.93;;;;;;;10.15;100.00;100327.84;5015925;28;20725;-73
2023/05/28 03:21:27;;;;;;;9.07;5.40;;;;;;;10.06;100.00;100331.72;5014571;28;20321;-72
2023/05/28 03:23:52;;;;;;;7.17;4.97;;;;;;;10.09;100.00;100334.13;5012071;28;20186;-73
2023/05/28 03:26:17;;;;;;;7.20;5.40;;;;;;;10.10;100.00;100330.66;5013297;28;20187;-73
2023/05/28 03:28:43;;;;;;;10.67;5.83;;;;;;;10.16;100.00;100330.34;5012629;28;20559;-73
2023/05/28 03:31:08;;;;;;;9.30;5.60;;;;;;;10.15;100.00;100325.28;4984770;28;20309;-73
2023/05/28 03:33:33;;;;;;;9.03;5.53;;;;;;;10.10;100.00;100327.25;5011861;28;20823;-73
2023/05/28 03:35:59;;;;;;;8.40;5.30;;;;;;;9.93;100.00;100325.50;5012989;28;20203;-73
2023/05/28 03:38:24;;;;;;;10.23;5.60;;;;;;;10.08;100.00;100332.44;5010440;28;20190;-74
2023/05/28 03:40:49;;;;;;;9.40;5.30;;;;;;;9.97;100.00;100327.84;5007819;28;20241;-73
2023/05/28 03:43:15;;;;;;;10.10;5.87;;;;;;;9.97;100.00;100330.41;5006290;28;20183;-73
2023/05/28 03:45:40;;;;;;;9.17;5.40;;;;;;;10.09;100.00;100323.00;5013426;28;20190;-73
2023/05/28 03:48:06;;;;;;;10.20;5.80;;;;;;;10.21;100.00;100327.56;5016659;28;20183;-74
2023/05/28 03:50:31;;;;;;;8.27;5.00;;;;;;;10.25;100.00;100318.78;5006355;28;20232;-74
2023/05/28 03:52:56;;;;;;;10.43;5.10;;;;;;;10.31;100.00;100326.19;5027223;28;20268;-74
2023/05/28 03:55:22;;;;;;;8.77;4.83;;;;;;;10.31;100.00;100325.34;5012903;28;20198;-73
2023/05/28 03:57:47;;;;;;;7.93;5.00;;;;;;;10.34;100.00;100317.47;5012024;28;20642;-73
2023/05/28 04:00:13;;;;;;;7.77;4.43;;;;;;;10.37;100.00;100319.09;5002109;28;20249;-74
2023/05/28 04:02:39;;;;;;;10.37;5.70;;;;;;;10.50;100.00;100327.84;5010984;28;20214;-73
2023/05/28 04:05:05;;;;;;;8.23;5.20;;;;;;;10.59;100.00;100318.84;5011512;28;20722;-73
2023/05/28 04:07:30;;;;;;;8.07;4.90;;;;;;;10.64;100.00;100325.44;5011772;28;20309;-73
2023/05/28 04:09:56;;;;;;;8.47;5.00;;;;;;;10.61;100.00;100320.41;5012077;28;20213;-73
2023/05/28 04:12:21;;;;;;;8.00;5.23;;;;;;;10.77;100.00;100324.78;5012973;28;20681;-73
2023/05/28 04:14:46;;;;;;;9.10;4.97;;;;;;;10.81;100.00;100324.53;5012921;28;20198;-73
2023/05/28 04:17:12;;;;;;;9.47;4.90;;;;;;;10.92;100.00;100321.41;5012301;28;20194;-73
2023/05/28 04:19:38;;;;;;;7.83;4.73;;;;;;;10.90;100.00;100325.81;5011830;28;20202;-73
2023/05/28 04:22:04;;;;;;;7.70;5.10;;;;;;;10.96;100.00;100320.34;5003496;28;20241;-73
2023/05/28 04:24:29;;;;;;;11.43;5.43;;;;;;;11.13;100.00;100319.44;5009815;28;20642;-73
2023/05/28 04:26:56;;;;;;;9.10;5.17;;;;;;;11.31;100.00;100324.50;5010841;28;20237;-74
2023/05/28 04:29:23;;;;;;;6.87;5.40;;;;;;;11.44;100.00;100322.94;5012773;28;20221;-73
2023/05/28 04:31:49;;;;;;;6.17;5.50;;;;;;;11.49;100.00;100327.84;5014678;28;20261;-74
2023/05/28 04:34:16;;;;;;;7.13;5.17;;;;;;;11.59;100.00;100326.41;5013822;28;20214;-74
2023/05/28 04:36:42;;;;;;;8.30;5.07;;;;;;;11.61;100.00;100334.91;5012348;28;20175;-74
2023/05/28 04:39:08;;;;;;;9.20;5.43;;;;;;;11.76;100.00;100337.56;5012816;28;20182;-74
2023/05/28 04:41:34;;;;;;;10.90;5.47;;;;;;;11.51;100.00;100344.06;5004536;28;20237;-73
2023/05/28 04:43:59;;;;;;;8.13;4.50;;;;;;;11.70;100.00;100336.13;5013419;28;20197;-75
2023/05/28 04:46:25;;;;;;;8.50;5.33;;;;;;;11.83;100.00;100338.84;5010569;28;20190;-73
2023/05/28 04:48:51;;;;;;;8.27;5.23;;;;;;;12.05;100.00;100338.50;5012752;28;20179;-74
2023/05/28 04:51:18;;;;;;;6.87;4.60;;;;;;;12.28;100.00;100341.53;5003831;28;20275;-74
2023/05/28 04:53:43;;;;;;;8.77;4.83;;;;;;;12.48;100.00;100331.78;5016545;28;20214;-73
2023/05/28 04:56:10;;;;;;;6.50;4.30;;;;;;;12.42;100.00;100338.13;5010511;28;20643;-73
2023/05/28 04:58:35;;;;;;;8.07;4.80;;;;;;;12.52;100.00;100333.28;5012345;28;20232;-73
2023/05/28 05:01:01;;;;;;;12.03;5.20;;;;;;;12.74;100.00;100335.41;5009159;28;20233;-73
2023/05/28 05:03:27;;;;;;;6.87;4.97;;;;;;;12.90;100.00;100333.56;5020024;28;20278;-73
2023/05/28 05:05:52;;;;;;;10.73;5.27;;;;;;;13.18;100.00;100334.44;5008560;28;20187;-73
2023/05/28 05:08:17;;;;;;;7.33;5.03;;;;;;;13.38;100.00;100330.66;5027414;28;20186;-73
2023/05/28 05:10:43;;;;;;;6.17;5.20;;;;;;;13.35;100.00;100335.16;5003278;28;20238;-73
2023/05/28 05:13:08;;;;;;;10.10;5.47;;;;;;;13.49;100.00;100335.13;5021820;28;20186;-73
2023/05/28 05:15:33;;;;;;;7.83;5.40;;;;;;;13.67;100.00;100333.16;5007555;28;20985;-73
2023/05/28 05:17:59;;;;;;;9.63;5.40;;;;;;;13.79;100.00;100336.72;5010546;28;20189;-73
2023/05/28 05:20:24;;;;;;;7.37;4.73;;;;;;;13.96;100.00;100329.63;5004621;28;20609;-73
2023/05/28 05:22:50;;;;;;;11.73;5.40;;;;;;;14.24;100.00;100330.38;5018237;28;20184;-73
2023/05/28 05:25:15;;;;;;;9.77;5.37;;;;;;;14.25;100.00;100325.13;5005787;28;20176;-72
2023/05/28 05:27:41;;;;;;;8.97;5.07;;;;;;;14.61;100.00;100331.34;5011925;28;20198;-72
2023/05/28 05:30:07;;;;;;;12.03;6.27;;;;;;;14.75;100.00;100335.63;5000341;28;20261;-72
2023/05/28 05:32:32;;;;;;;9.93;5.03;;;;;;;14.58;100.00;100334.13;5010677;28;20175;-72
2023/05/28 05:34:57;;;;;;;8.30;5.47;;;;;;;14.77;100.00;100338.94;5011561;28;20642;-73
2023/05/28 05:37:23;;;;;;;9.03;5.97;;;;;;;14.63;100.00;100334.66;5011629;28;20183;-72
2023/05/28 05:39:48;;;;;;;8.17;5.47;;;;;;;14.60;100.00;100340.03;5010332;28;20621;-72
2023/05/28 05:42:14;;;;;;;10.97;6.17;;;;;;;14.75;100.00;100335.63;5016588;28;20214;-73
2023/05/28 05:44:39;;;;;;;9.43;6.07;;;;;;;15.06;100.00;100340.44;5009996;28;20212;-73
2023/05/28 05:47:04;;;;;;;7.97;5.10;;;;;;;15.19;100.00;100336.06;5011195;28;20194;-72
2023/05/28 05:49:30;;;;;;;10.97;6.37;;;;;;;15.21;100.00;100335.94;5010098;28;20606;-73
2023/05/28 05:51:55;;;;;;;9.70;5.37;;;;;;;15.47;100.00;100336.69;5003174;28;20680;-73
2023/05/28 05:54:20;;;;;;;13.27;6.00;;;;;;;15.71;100.00;100334.09;5011994;28;20205;-69
2023/05/28 05:56:46;;;;;;;10.97;5.83;;;;;;;16.06;100.00;100343.72;5011007;28;20191;-71
2023/05/28 05:59:11;;;;;;;11.40;5.90;;;;;;;16.51;100.00;100336.94;5011183;28;20193;-71
2023/05/28 06:01:36;;;;;;;15.20;5.30;;;;;;;16.88;100.00;100336.72;5003318;28;20228;-71
2023/05/28 06:04:02;;;;;;;11.83;5.40;;;;;;;17.23;97.80;100334.00;5011549;28;20182;-71
2023/05/28 06:06:27;;;;;;;16.20;5.83;;;;;;;17.44;95.09;100338.47;5015052;28;20212;-71
2023/05/28 06:08:52;;;;;;;7.97;5.10;;;;;;;17.46;92.80;100335.72;5013442;28;20171;-68
2023/05/28 06:11:18;;;;;;;10.57;5.40;;;;;;;17.27;86.99;100343.19;5000400;28;20242;-76
2023/05/28 06:13:43;;;;;;;8.90;4.67;;;;;;;18.02;83.61;100332.94;5015202;28;20606;-76
2023/05/28 06:16:08;;;;;;;10.17;4.20;;;;;;;18.64;76.37;100340.84;5010188;28;20263;-76
2023/05/28 06:18:34;;;;;;;6.87;3.80;;;;;;;18.42;65.10;100335.75;5009566;28;20202;-77
2023/05/28 06:20:59;;;;;;;6.27;3.63;;;;;;;18.52;64.02;100341.88;5006760;28;20218;-77
2023/05/28 06:23:25;;;;;;;6.53;4.07;;;;;;;18.98;60.69;100337.97;5023138;28;20197;-76
2023/05/28 06:25:50;;;;;;;8.23;3.40;;;;;;;19.23;57.42;100342.84;5014645;28;20182;-76
2023/05/28 06:28:16;;;;;;;6.33;3.77;;;;;;;20.20;53.46;100354.28;5013789;28;20191;-79
2023/05/28 06:30:41;;;;;;;4.30;3.40;;;;;;;20.66;50.19;100343.97;5009398;28;20236;-78
2023/05/28 06:33:08;;;;;;;7.07;3.50;;;;;;;21.26;49.56;100349.63;5029440;28;20563;-74
2023/05/28 06:35:33;;;;;;;9.60;3.50;;;;;;;22.52;46.97;100343.47;5000641;28;20206;-78
2023/05/28 06:37:59;;;;;;;6.20;3.73;;;;;;;22.90;42.93;100348.41;5013506;28;20257;-76
2023/05/28 06:40:24;;;;;;;9.07;3.83;;;;;;;23.43;42.75;100350.84;5007103;28;20310;-78
2023/05/28 06:42:49;;;;;;;5.80;3.80;;;;;;;23.85;41.24;100353.34;5013271;28;20183;-77
2023/05/28 06:45:15;;;;;;;5.80;3.33;;;;;;;24.13;39.58;100358.28;5013034;28;20210;-73
2023/05/28 06:47:41;;;;;;;8.98;3.25;;;;;;;24.16;39.68;100363.22;5013186;28;20627;-74
2023/05/28 06:50:06;;;;;;;9.07;3.55;;;;;;;23.72;40.51;100358.28;5003228;28;20182;-75
2023/05/28 06:52:32;;;;;;;5.28;3.70;;;;;;;23.95;40.57;100358.47;5029002;28;20191;-73
2023/05/28 06:54:57;;;;;;;7.20;3.78;;;;;;;25.22;38.82;100360.41;5012769;28;20565;-72
2023/05/28 06:57:22;;;;;;;7.88;3.75;;;;;;;24.07;38.42;100366.00;5013745;28;20190;-71
2023/05/28 06:59:48;;;;;;;8.05;4.00;;;;;;;24.30;39.36;100369.59;5012388;28;21042;-72
2023/05/28 07:02:13;;;;;;;6.50;4.10;;;;;;;24.59;39.01;100367.41;4990108;28;20227;-72
2023/05/28 07:04:38;;;;;;;7.82;3.85;;;;;;;25.66;36.96;100360.81;5008428;28;20222;-72
2023/05/28 07:07:04;;;;;;;6.63;3.53;;;;;;;27.35;34.36;100362.94;5013482;28;20205;-72
2023/05/28 07:09:30;;;;;;;6.63;3.72;;;;;;;28.09;33.34;100366.28;5012842;28;20272;-72
2023/05/28 07:11:55;;;;;;;9.52;3.70;;;;;;;27.45;33.27;100374.06;5018024;28;20328;-72
2023/05/28 07:14:20;;;;;;;6.03;3.40;;;;;;;25.93;35.12;100369.97;5011939;28;20293;-71
2023/05/28 07:16:46;;;;;;;6.13;3.50;;;;;;;25.57;34.13;100368.75;5005231;28;20226;-71
2023/05/28 07:19:11;;;;;;;7.38;3.85;;;;;;;24.78;36.27;100367.03;5012491;28;20195;-71
2023/05/28 07:21:38;;;;;;;6.70;4.00;;;;;;;25.51;34.54;100360.75;5005477;28;20254;-71
2023/05/28 07:24:05;;;;;;;6.90;3.22;;;;;;;25.92;34.66;100361.25;5016746;28;20576;-71
2023/05/28 07:26:30;;;;;;;7.80;3.90;;;;;;;25.89;34.34;100358.97;5013298;28;20195;-72
2023/05/28 07:28:55;;;;;;;7.68;4.05;;;;;;;26.80;32.94;100362.53;5012176;28;20182;-71
2023/05/28 07:31:21;;;;;;;4.28;3.05;;;;;;;28.07;31.60;100368.28;4982822;28;20254;-72
2023/05/28 07:33:46;;;;;;;8.05;4.22;;;;;;;29.50;29.66;100369.53;5005947;28;20530;-71
2023/05/28 07:36:12;;;;;;;7.25;3.47;;;;;;;28.34;30.18;100377.22;5013050;28;20210;-71
2023/05/28 07:38:37;;;;;;;6.30;3.55;;;;;;;27.21;31.53;100378.66;5013471;28;20178;-72
2023/05/28 07:41:02;;;;;;;8.45;3.80;;;;;;;27.18;32.53;100375.56;5005339;28;20233;-72
2023/05/28 07:43:27;;;;;;;7.28;4.07;;;;;;;26.89;32.11;100367.53;5020705;28;20183;-72
2023/05/28 07:45:53;;;;;;;7.10;3.75;;;;;;;26.21;33.30;100374.66;5011543;28;20205;-72
2023/05/28 07:48:18;;;;;;;7.90;4.30;;;;;;;27.93;31.37;100372.63;5013349;28;20753;-73
2023/05/28 07:50:43;;;;;;;4.30;3.10;;;;;;;27.16;31.97;100375.72;5008837;28;20237;-72
2023/05/28 07:53:09;;;;;;;5.63;3.75;;;;;;;27.57;31.20;100376.19;5023712;28;20179;-72
2023/05/28 07:55:34;;;;;;;5.82;3.50;;;;;;;27.10;32.56;100380.94;5014788;28;20197;-73
2023/05/28 07:57:59;;;;;;;7.63;3.92;;;;;;;28.01;30.30;100370.66;5013795;28;20307;-73
2023/05/28 08:00:26;;;;;;;6.38;3.95;;;;;;;29.09;29.94;100379.22;5004602;28;20554;-72
2023/05/28 08:02:52;;;;;;;8.05;4.22;;;;;;;28.94;29.50;100376.72;5011875;28;20183;-72
2023/05/28 08:05:18;;;;;;;7.63;4.35;;;;;;;28.20;30.23;100373.66;5027314;28;20200;-72
2023/05/28 08:07:44;;;;;;;9.98;4.22;;;;;;;29.04;29.33;100374.53;5012987;28;20275;-71
2023/05/28 08:10:09;;;;;;;7.95;4.07;;;;;;;28.47;28.88;100379.13;5003361;28;20218;-72
2023/05/28 08:12:34;;;;;;;7.28;3.95;;;;;;;28.44;28.42;100371.56;5011502;28;20238;-73
2023/05/28 08:15:00;;;;;;;6.82;4.10;;;;;;;28.02;29.98;100359.09;5012255;28;20688;-72
2023/05/28 08:17:30;;;;;;;7.47;4.15;;;;;;;27.96;30.26;100359.00;5013168;28;20187;-73
2023/05/28 08:19:55;;;;;;;6.53;4.22;;;;;;;27.92;30.36;100357.78;5010944;28;20202;-72
2023/05/28 08:22:20;;;;;;;7.63;3.97;;;;;;;28.22;29.53;100353.16;5017059;28;20230;-73
2023/05/28 08:24:45;;;;;;;6.70;3.92;;;;;;;28.83;29.30;100360.38;5012447;28;20543;-72
2023/05/28 08:27:11;;;;;;;6.60;4.18;;;;;;;28.36;30.31;100361.16;5011472;28;20185;-72
2023/05/28 08:29:36;;;;;;;8.10;3.90;;;;;;;29.42;28.25;100349.34;5000258;28;20599;-72
2023/05/28 08:32:01;;;;;;;8.10;3.97;;;;;;;28.12;29.85;100357.94;5015730;28;20267;-72
2023/05/28 08:34:27;;;;;;;5.85;3.80;;;;;;;27.49;29.59;100343.59;5013215;28;20179;-72
2023/05/28 08:36:52;;;;;;;6.47;4.15;;;;;;;27.38;30.05;100344.88;5010568;28;20186;-72
2023/05/28 08:39:18;;;;;;;4.68;3.65;;;;;;;27.67;29.56;100344.97;5012528;28;20289;-73
2023/05/28 08:41:44;;;;;;;10.20;4.13;;;;;;;30.65;27.51;100344.53;5005172;28;20693;-73
2023/05/28 08:44:10;;;;;;;6.20;4.10;;;;;;;30.15;26.63;100342.44;5010860;28;20209;-73
2023/05/28 08:46:36;;;;;;;8.90;3.83;;;;;;;29.94;26.85;100349.59;5011924;28;20607;-73
2023/05/28 08:49:02;;;;;;;6.65;3.78;;;;;;;28.98;28.33;100349.63;5012427;28;20626;-73
2023/05/28 08:51:32;;;;;;;9.38;4.30;;;;;;;29.14;27.52;100343.16;5004869;28;20679;-73
2023/05/28 08:53:59;;;;;;;9.95;4.25;;;;;;;30.41;26.84;100345.00;5010723;28;20241;-73
2023/05/28 08:56:25;;;;;;;6.22;3.97;;;;;;;31.15;26.40;100344.72;5015167;28;20207;-73
2023/05/28 08:58:51;;;;;;;6.55;3.80;;;;;;;30.63;26.29;100344.75;5004596;28;20187;-73
2023/05/28 09:01:16;;;;;;;5.65;4.10;;;;;;;30.88;26.31;100341.38;5000619;28;20657;-73
2023/05/28 09:03:42;;;;;;;8.45;3.97;;;;;;;30.83;26.26;100344.66;5018702;28;20221;-73
2023/05/28 09:06:08;;;;;;;6.15;4.00;;;;;;;30.23;26.99;100343.03;5011286;28;20261;-73
2023/05/28 09:08:34;;;;;;;5.88;4.00;;;;;;;30.50;26.50;100336.84;5010787;28;20187;-73
2023/05/28 09:11:10;;;;;;;6.65;3.83;;;;;;;30.72;25.96;100327.53;5008814;28;20613;-72
2023/05/28 09:13:40;;;;;;;7.10;3.95;;;;;;;29.97;27.20;100338.59;5019349;28;20550;-72
2023/05/28 09:16:06;;;;;;;5.82;3.75;;;;;;;30.16;26.85;100336.09;5011230;28;20666;-72
2023/05/28 09:18:31;;;;;;;8.35;4.28;;;;;;;31.29;26.08;100332.16;5012040;28;20246;-72
2023/05/28 09:21:00;;;;;;;11.18;4.85;;;;;;;31.45;25.45;100330.81;5003338;28;20245;-72
2023/05/28 09:23:28;;;;;;;6.15;3.78;;;;;;;30.34;26.37;100327.47;5010463;28;20236;-72
2023/05/28 09:25:56;;;;;;;8.98;6.53;;;;;;;29.51;27.92;100326.94;5025714;28;20183;-72
2023/05/28 09:28:25;;;;;;;9.88;4.07;;;;;;;30.53;26.60;100325.81;5009903;28;20190;-72
2023/05/28 09:30:51;;;;;;;6.47;4.15;;;;;;;28.61;27.92;100327.09;5003647;28;20785;-72
2023/05/28 09:33:17;;;;;;;10.50;5.05;;;;;;;28.84;28.03;100321.50;5009287;28;20183;-72
2023/05/28 09:35:43;;;;;;;9.70;4.55;;;;;;;28.57;28.99;100324.03;5009735;28;20713;-71
2023/05/28 09:38:11;;;;;;;7.90;3.45;;;;;;;28.88;26.87;100317.44;5013336;28;20182;-72
2023/05/28 09:40:40;;;;;;;11.55;4.18;;;;;;;29.82;26.40;100316.72;5007439;28;20704;-71
2023/05/28 09:43:06;;;;;;;8.63;4.00;;;;;;;29.01;26.96;100307.91;5014055;28;20189;-72
2023/05/28 09:45:33;;;;;;;8.45;4.50;;;;;;;28.92;27.31;100313.38;5013875;28;20183;-73
2023/05/28 09:47:59;;;;;;;8.65;4.38;;;;;;;28.70;27.42;100314.53;5013799;28;20182;-72
2023/05/28 09:50:24;;;;;;;6.07;3.92;;;;;;;28.53;27.80;100319.31;5006758;28;20553;-72
2023/05/28 09:52:55;;;;;;;9.35;4.25;;;;;;;29.13;26.82;100309.75;5013995;28;20233;-72
2023/05/28 09:55:23;;;;;;;7.13;4.07;;;;;;;30.75;25.59;100311.22;5013739;28;20229;-72
2023/05/28 09:58:02;;;;;;;8.73;4.00;;;;;;;29.47;26.27;100315.09;5015406;28;20190;-72
2023/05/28 10:00:38;;;;;;;6.95;3.85;;;;;;;29.72;26.00;100307.38;5008619;28;20287;-72
2023/05/28 10:03:13;;;;;;;6.50;3.95;;;;;;;30.15;26.12;100306.09;5025582;28;20657;-72
2023/05/28 10:05:42;;;;;;;6.43;3.85;;;;;;;28.89;26.69;100316.44;5014757;28;20547;-72
2023/05/28 10:08:12;;;;;;;9.52;4.15;;;;;;;31.03;24.57;100307.34;5013834;28;20179;-72
2023/05/28 10:10:40;;;;;;;8.57;3.88;;;;;;;30.95;24.13;100306.81;5006344;28;20240;-72
2023/05/28 10:13:07;;;;;;;5.15;3.90;;;;;;;30.34;25.10;100311.56;5025480;28;20179;-72
2023/05/28 10:15:34;;;;;;;7.35;3.97;;;;;;;29.39;25.97;100312.69;5012805;28;20191;-72
2023/05/28 10:18:00;;;;;;;6.53;4.05;;;;;;;29.29;25.73;100308.59;5013587;28;20232;-72
2023/05/28 10:20:25;;;;;;;6.30;4.00;;;;;;;29.56;25.49;100305.13;5007815;28;20222;-72
2023/05/28 10:22:51;;;;;;;5.70;3.78;;;;;;;29.21;25.80;100299.97;5020976;28;20187;-72
2023/05/28 10:25:16;;;;;;;6.75;4.00;;;;;;;29.76;24.72;100303.28;5010761;28;20713;-72
2023/05/28 10:27:48;;;;;;;6.30;4.03;;;;;;;30.71;24.25;100301.22;5014812;28;20281;-72
2023/05/28 10:30:31;;;;;;;6.95;3.75;;;;;;;31.02;23.96;100302.28;4991019;28;20545;-72
2023/05/28 10:32:56;;;;;;;7.10;3.88;;;;;;;30.18;24.16;100296.91;5013640;28;20634;-71
2023/05/28 10:35:21;;;;;;;10.35;4.22;;;;;;;30.96;24.28;100293.34;5014140;28;20210;-72
2023/05/28 10:37:47;;;;;;;6.22;4.10;;;;;;;29.72;25.33;100291.47;5014492;28;20182;-72
2023/05/28 10:40:22;;;;;;;8.35;4.00;;;;;;;27.87;27.93;100300.19;5005289;28;20210;-72
2023/05/28 10:42:47;;;;;;;7.25;3.65;;;;;;;26.47;27.67;100292.50;5027252;28;20182;-73
2023/05/28 10:45:13;;;;;;;7.25;4.15;;;;;;;26.36;28.98;100287.69;5012827;28;20197;-73
2023/05/28 10:47:40;;;;;;;6.13;3.97;;;;;;;25.86;29.78;100287.34;5014273;28;20273;-72
2023/05/28 10:50:08;;;;;;;5.45;3.92;;;;;;;25.11;31.14;100292.38;4989946;28;20316;-73
2023/05/28 10:52:33;;;;;;;5.65;4.28;;;;;;;24.55;30.68;100287.19;5029403;28;20190;-73
2023/05/28 10:55:03;;;;;;;6.47;4.00;;;;;;;24.87;31.25;100283.63;5013770;28;20206;-72
2023/05/28 10:57:39;;;;;;;7.10;3.90;;;;;;;24.46;31.82;100281.13;5013014;28;20270;-72
2023/05/28 11:00:10;;;;;;;9.30;4.38;;;;;;;24.10;31.53;100274.53;4998760;28;20217;-72
2023/05/28 11:02:35;;;;;;;7.20;4.05;;;;;;;23.98;32.23;100289.81;5013004;28;20281;-72
2023/05/28 11:05:04;;;;;;;6.53;3.95;;;;;;;23.98;30.53;100279.31;5012328;28;20189;-73
2023/05/28 11:07:32;;;;;;;5.38;4.38;;;;;;;23.80;29.70;100270.78;5012645;28;20209;-73
2023/05/28 11:09:59;;;;;;;5.57;3.83;;;;;;;23.85;30.29;100269.31;5012677;28;20281;-72
2023/05/28 11:12:26;;;;;;;6.65;4.45;;;;;;;24.16;29.36;100267.78;5003188;28;20355;-72
2023/05/28 11:14:52;;;;;;;7.33;4.50;;;;;;;24.37;30.42;100259.31;5014036;28;20245;-73